Time;durP1;ratioP1;P1;durP2;ratioP2;P2;SDS_P1;SDS_P2;PMS_P1;PMS_P2;Temp;Humidity;BMP_temperature;BMP_pressure;BME280_temperature;BME280_humidity;BME280_pressure;Samples;Min_cycle;Max_cycle;Signal;HPM_P1;HPM_P2
2022/06/02 00:00:21;;;;;;;3.53;1.30;;;;;;;14.57;60.95;96295.69;5031858;28;20492;-80
2022/06/02 00:03:08;;;;;;;2.60;1.10;;;;;;;14.64;61.24;96294.97;5014159;28;20065;-80
2022/06/02 00:05:52;;;;;;;3.07;1.20;;;;;;;14.33;61.91;96298.56;5033010;28;20093;-79
2022/06/02 00:08:36;;;;;;;2.13;1.30;;;;;;;14.53;61.11;96298.91;5025837;28;20038;-78
2022/06/02 00:11:05;;;;;;;5.40;1.87;;;;;;;14.43;61.75;96306.25;5026796;28;20600;-79
2022/06/02 00:14:04;;;;;;;3.90;1.20;;;;;;;14.36;62.36;96312.25;5013574;28;20076;-79
2022/06/02 00:16:46;;;;;;;2.27;1.20;;;;;;;14.46;61.86;96311.19;5012035;28;20673;-79
2022/06/02 00:19:27;;;;;;;2.53;1.27;;;;;;;14.50;62.77;96315.94;5024066;28;20782;-80
2022/06/02 00:22:03;;;;;;;4.10;1.67;;;;;;;14.41;61.65;96316.19;5017604;28;20057;-79
2022/06/02 00:25:00;;;;;;;2.33;1.20;;;;;;;14.42;62.35;96323.97;5017463;28;20116;-79
2022/06/02 00:27:51;;;;;;;3.87;1.53;;;;;;;14.06;64.21;96327.25;5013569;28;20038;-80
2022/06/02 00:30:24;;;;;;;3.37;1.37;;;;;;;14.12;64.43;96328.38;5015468;28;20055;-78
2022/06/02 00:33:11;;;;;;;4.00;1.48;;;;;;;14.15;64.15;96328.00;5012249;28;20150;-80
2022/06/02 00:35:55;;;;;;;3.23;1.20;;;;;;;14.07;64.67;96328.88;5013436;28;20096;-79
2022/06/02 00:38:35;;;;;;;3.83;1.20;;;;;;;14.01;66.29;96328.78;5025915;28;20569;-79
2022/06/02 00:41:24;;;;;;;4.47;1.53;;;;;;;13.89;66.34;96328.41;5018144;28;20033;-80
2022/06/02 00:43:49;;;;;;;3.70;1.20;;;;;;;13.83;67.65;96324.63;5021176;28;20038;-78
2022/06/02 00:46:27;;;;;;;4.73;1.40;;;;;;;13.73;68.32;96318.75;5027820;28;20192;-78
2022/06/02 00:49:05;;;;;;;2.80;1.20;;;;;;;13.92;67.55;96328.03;5017979;28;20072;-79
2022/06/02 00:51:40;;;;;;;5.40;1.43;;;;;;;13.87;67.88;96312.69;5008369;28;20042;-79
2022/06/02 00:57:35;;;;;;;2.17;1.30;;;;;;;13.79;69.30;96312.78;5017054;28;20041;-79
2022/06/02 01:00:13;;;;;;;3.50;1.17;;;;;;;13.90;69.05;96319.47;5012150;28;20036;-79
2022/06/02 01:02:53;;;;;;;3.23;1.20;;;;;;;13.70;70.24;96321.75;5011372;28;20049;-78
2022/06/02 01:05:36;;;;;;;2.03;1.03;;;;;;;13.72;70.68;96316.31;5023604;28;20071;-78
2022/06/02 01:08:30;;;;;;;3.13;1.15;;;;;;;13.66;71.54;96307.25;5019276;28;20034;-80
2022/06/02 01:11:03;;;;;;;3.57;1.20;;;;;;;13.68;71.96;96314.03;4995124;28;20031;-79
2022/06/02 01:13:46;;;;;;;3.53;1.33;;;;;;;13.68;73.11;96315.81;5019872;28;20046;-79
2022/06/02 01:16:21;;;;;;;4.47;1.40;;;;;;;13.59;73.10;96319.53;5008994;28;20068;-79
2022/06/02 01:18:49;;;;;;;3.10;1.30;;;;;;;13.58;73.81;96320.50;5009875;28;20161;-79
2022/06/02 01:21:41;;;;;;;3.43;1.10;;;;;;;13.47;75.25;96318.28;5014228;28;20108;-80
2022/06/02 01:24:37;;;;;;;2.20;1.20;;;;;;;13.34;75.62;96318.84;5028452;28;20395;-79
2022/06/02 01:27:18;;;;;;;2.27;1.23;;;;;;;13.17;76.47;96320.72;5010397;28;20038;-78
2022/06/02 01:30:17;;;;;;;2.60;1.13;;;;;;;13.16;78.13;96333.13;5024448;28;20036;-79
2022/06/02 01:33:14;;;;;;;2.90;1.10;;;;;;;12.98;79.00;96329.91;5023932;28;20038;-79
2022/06/02 01:35:59;;;;;;;3.07;1.30;;;;;;;12.94;80.05;96332.06;4993987;28;20124;-80
2022/06/02 01:38:39;;;;;;;3.40;1.30;;;;;;;12.90;80.03;96333.38;5010748;28;20042;-78
2022/06/02 01:41:46;;;;;;;1.87;1.00;;;;;;;12.76;80.99;96339.38;5030453;28;20503;-79
2022/06/02 01:44:33;;;;;;;3.40;1.03;;;;;;;12.86;81.88;96342.66;4998058;28;20040;-79
2022/06/02 01:47:12;;;;;;;3.03;1.10;;;;;;;12.84;82.65;96344.63;5015395;28;20026;-79
2022/06/02 01:49:50;;;;;;;2.13;1.20;;;;;;;12.59;83.44;96345.72;5010117;28;20057;-80
2022/06/02 01:52:44;;;;;;;3.03;1.30;;;;;;;12.56;84.26;96341.59;5037194;28;20037;-79
2022/06/02 01:55:46;;;;;;;1.97;1.07;;;;;;;12.50;85.64;96353.63;5015215;28;20030;-78
2022/06/02 01:58:18;;;;;;;3.13;1.37;;;;;;;12.42;85.56;96345.75;5014558;28;20041;-79
2022/06/02 02:00:55;;;;;;;1.97;1.03;;;;;;;12.47;85.98;96351.34;5015075;28;20026;-78
2022/06/02 02:04:09;;;;;;;2.37;1.30;;;;;;;12.32;87.40;96358.28;5012652;28;20060;-80
2022/06/02 02:06:38;;;;;;;;;;;;;;;12.23;88.12;96364.56;4949942;29;20035;-80
2022/06/02 02:09:28;;;;;;;2.73;1.30;;;;;;;12.39;86.92;96358.44;5021248;28;19916;-80
2022/06/02 02:11:56;;;;;;;3.03;1.10;;;;;;;12.42;87.28;96372.13;5019240;28;20026;-80
2022/06/02 02:14:38;;;;;;;5.37;1.53;;;;;;;12.48;86.35;96368.00;5010399;28;20521;-80
2022/06/02 02:17:16;;;;;;;4.90;1.30;;;;;;;12.30;85.96;96364.72;5030499;28;20463;-79
2022/06/02 02:19:45;;;;;;;2.97;1.30;;;;;;;12.26;87.47;96367.69;5032963;28;20253;-79
2022/06/02 02:22:32;;;;;;;1.67;1.00;;;;;;;12.22;87.95;96368.19;5017748;28;20061;-80
2022/06/02 02:25:00;;;;;;;2.73;1.40;;;;;;;12.36;88.31;96378.06;5015673;28;20489;-79
2022/06/02 02:28:03;;;;;;;2.53;1.30;;;;;;;12.24;87.18;96372.31;5026256;28;20093;-79
2022/06/02 02:30:42;;;;;;;6.27;1.50;;;;;;;12.35;87.11;96375.59;5033370;28;20056;-78
2022/06/02 02:33:29;;;;;;;4.93;1.73;;;;;;;12.20;87.79;96373.59;5024325;28;20179;-79
2022/06/02 02:36:26;;;;;;;3.37;1.20;;;;;;;12.26;88.16;96380.03;5032518;28;20344;-79
2022/06/02 02:39:02;;;;;;;2.60;1.20;;;;;;;12.23;87.67;96380.38;5020249;28;20030;-79
2022/06/02 02:41:49;;;;;;;2.80;1.50;;;;;;;12.21;87.75;96382.38;5036437;28;20095;-79
2022/06/02 02:44:41;;;;;;;3.17;1.40;;;;;;;11.88;89.84;96384.16;5022637;28;20116;-80
2022/06/02 02:47:23;;;;;;;2.60;1.40;;;;;;;11.98;89.93;96369.84;4988286;28;20046;-79
2022/06/02 02:50:25;;;;;;;2.33;1.03;;;;;;;12.09;88.96;96378.41;5034386;28;20033;-78
2022/06/02 02:53:20;;;;;;;4.83;1.10;;;;;;;11.92;90.09;96373.13;5020848;28;20053;-79
2022/06/02 02:56:09;;;;;;;8.77;3.27;;;;;;;11.75;91.27;96379.34;5024205;28;20065;-79
2022/06/02 02:59:00;;;;;;;17.50;11.00;;;;;;;11.76;91.88;96381.81;5048000;28;20033;-78
2022/06/02 03:01:47;;;;;;;18.23;11.90;;;;;;;11.78;91.60;96374.56;5033127;28;20037;-78
2022/06/02 03:04:34;;;;;;;5.43;2.80;;;;;;;11.85;92.33;96377.41;5032202;28;20547;-79
2022/06/02 03:06:59;;;;;;;1.97;1.43;;;;;;;11.88;92.56;96378.91;5032962;28;20030;-79
2022/06/02 03:09:34;;;;;;;2.83;1.33;;;;;;;11.77;93.85;96388.75;5025557;28;20052;-79
2022/06/02 03:12:16;;;;;;;3.40;1.30;;;;;;;11.70;95.07;96392.16;5029423;28;20044;-79
2022/06/02 03:15:10;;;;;;;2.83;1.30;;;;;;;11.66;95.53;96388.22;5032511;28;20483;-79
2022/06/02 03:18:06;;;;;;;4.73;1.37;;;;;;;11.39;97.54;96398.03;5018614;28;20034;-80
2022/06/02 03:20:57;;;;;;;16.20;9.97;;;;;;;11.33;100.00;96391.63;5034953;28;20085;-79
2022/06/02 03:23:51;;;;;;;6.67;2.80;;;;;;;11.11;100.00;96399.25;5025480;28;20058;-80
2022/06/02 03:26:53;;;;;;;5.23;1.53;;;;;;;11.21;100.00;96397.31;5012358;28;20052;-78
2022/06/02 03:29:33;;;;;;;3.03;1.40;;;;;;;11.09;100.00;96405.47;4980373;28;20043;-79
2022/06/02 03:32:31;;;;;;;1.90;1.40;;;;;;;11.23;100.00;96398.81;5006901;28;20041;-80
2022/06/02 03:35:12;;;;;;;2.37;1.40;;;;;;;11.28;100.00;96390.44;5030215;28;20061;-80
2022/06/02 03:38:02;;;;;;;2.33;1.23;;;;;;;11.43;98.90;96391.44;5029066;28;20042;-79
2022/06/02 03:41:02;;;;;;;3.60;1.30;;;;;;;11.56;98.02;96397.06;5028207;28;20034;-79
2022/06/02 03:43:36;;;;;;;3.33;1.60;;;;;;;11.50;98.76;96402.16;5028930;28;20041;-79
2022/06/02 03:46:45;;;;;;;3.17;1.30;;;;;;;11.42;99.69;96410.88;5016987;28;20093;-78
2022/06/02 03:49:32;;;;;;;3.73;1.63;;;;;;;11.28;100.00;96412.31;4968046;28;20050;-80
2022/06/02 03:52:16;;;;;;;3.97;1.90;;;;;;;11.32;100.00;96415.44;5011793;28;20040;-79
2022/06/02 03:55:27;;;;;;;5.97;1.87;;;;;;;11.32;100.00;96407.56;5036196;28;20037;-79
2022/06/02 03:58:17;;;;;;;12.20;7.93;;;;;;;11.44;99.24;96408.91;4993199;28;20135;-79
2022/06/02 04:00:53;;;;;;;14.77;10.13;;;;;;;11.54;99.11;96414.06;5027032;28;20112;-80
2022/06/02 04:03:43;;;;;;;7.30;3.90;;;;;;;11.63;98.39;96409.59;4995156;28;20038;-79
2022/06/02 04:06:27;;;;;;;5.67;1.90;;;;;;;11.62;97.59;96413.25;5032273;28;20070;-78
2022/06/02 04:09:13;;;;;;;3.93;1.50;;;;;;;11.60;97.38;96412.56;5047328;28;20040;-79
2022/06/02 04:15:09;;;;;;;3.60;1.37;;;;;;;11.92;94.13;96412.66;5034194;28;20121;-80
2022/06/02 04:18:24;;;;;;;7.47;5.00;;;;;;;12.05;93.12;96424.53;5029848;28;20030;-80
2022/06/02 04:21:07;;;;;;;18.90;11.80;;;;;;;12.17;93.47;96420.56;4975653;28;20030;-79
2022/06/02 04:23:45;;;;;;;7.07;3.15;;;;;;;12.24;91.62;96421.59;5017262;28;20085;-79
2022/06/02 04:26:26;;;;;;;4.40;1.57;;;;;;;12.30;91.87;96418.28;5021177;28;20730;-78
2022/06/02 04:29:17;;;;;;;3.47;1.47;;;;;;;12.21;91.47;96417.47;5016905;28;20120;-80
2022/06/02 04:32:18;;;;;;;2.83;1.40;;;;;;;12.27;92.98;96431.78;5014413;28;20522;-78
2022/06/02 04:35:21;;;;;;;4.17;1.27;;;;;;;12.61;90.45;96428.97;4986865;28;20038;-78
2022/06/02 04:37:57;;;;;;;4.00;1.77;;;;;;;12.66;90.37;96431.94;5028705;28;20043;-78
2022/06/02 04:40:57;;;;;;;3.20;1.80;;;;;;;12.47;86.79;96427.84;5011809;28;20100;-79
2022/06/02 04:43:40;;;;;;;5.70;2.10;;;;;;;12.42;88.43;96437.25;5022254;28;20073;-78
2022/06/02 04:46:18;;;;;;;4.10;1.55;;;;;;;12.43;88.20;96436.25;5016678;28;20733;-79
2022/06/02 04:49:26;;;;;;;3.67;1.70;;;;;;;12.16;88.79;96440.03;5036850;28;20401;-79
2022/06/02 04:52:01;;;;;;;3.37;1.30;;;;;;;12.32;88.49;96428.66;4940139;28;20043;-77
2022/06/02 04:54:45;;;;;;;4.73;1.80;;;;;;;12.21;90.33;96440.38;5035911;28;20049;-78
2022/06/02 04:57:27;;;;;;;3.60;1.90;;;;;;;12.28;90.76;96438.72;5009473;28;20043;-78
2022/06/02 05:00:40;;;;;;;4.23;2.27;;;;;;;12.59;87.76;96438.03;5012133;28;20034;-78
2022/06/02 05:03:21;;;;;;;6.97;2.17;;;;;;;12.91;87.81;96434.50;5009262;28;20017;-79
2022/06/02 05:06:25;;;;;;;2.93;1.53;;;;;;;12.82;89.12;96431.09;5022177;28;20056;-79
2022/06/02 05:09:22;;;;;;;4.63;1.53;;;;;;;13.19;85.90;96432.31;5006964;28;20042;-79
2022/06/02 05:12:07;;;;;;;5.37;1.80;;;;;;;13.32;82.30;96432.63;5026382;28;20034;-80
2022/06/02 05:14:39;;;;;;;3.87;1.80;;;;;;;13.33;83.49;96434.25;5030047;28;20116;-80
2022/06/02 05:17:23;;;;;;;3.97;1.70;;;;;;;13.28;81.28;96433.97;5017294;28;20049;-79
2022/06/02 05:20:09;;;;;;;3.40;1.80;;;;;;;13.51;80.91;96441.09;4998527;28;20045;-80
2022/06/02 05:23:01;;;;;;;5.27;3.07;;;;;;;13.13;81.51;96446.19;5021169;28;20084;-78
2022/06/02 05:25:45;;;;;;;4.43;2.30;;;;;;;13.15;83.18;96445.03;5009710;28;20034;-79
2022/06/02 05:28:13;;;;;;;32.50;23.10;;;;;;;13.29;81.58;96446.16;5014949;28;20038;-80
2022/06/02 05:31:01;;;;;;;5.60;2.20;;;;;;;13.37;81.98;96440.81;4999865;28;20050;-79
2022/06/02 05:33:48;;;;;;;2.83;1.77;;;;;;;13.14;84.95;96448.63;5016636;28;20425;-80
2022/06/02 05:36:23;;;;;;;7.07;2.20;;;;;;;13.42;85.06;96449.06;5025604;28;20038;-80
2022/06/02 05:39:04;;;;;;;5.40;1.70;;;;;;;13.89;80.91;96444.72;5022018;28;20300;-80
2022/06/02 05:41:45;;;;;;;3.37;1.60;;;;;;;14.43;78.24;96449.13;5014343;28;20030;-80
2022/06/02 05:44:35;;;;;;;4.30;1.83;;;;;;;14.38;76.01;96453.13;5015103;28;20076;-80
2022/06/02 05:47:15;;;;;;;3.90;1.70;;;;;;;14.15;70.92;96453.13;5031729;28;20490;-80
2022/06/02 05:49:51;;;;;;;3.90;1.80;;;;;;;14.34;71.50;96451.81;5019461;28;20101;-80
2022/06/02 05:52:45;;;;;;;4.70;1.90;;;;;;;14.79;68.63;96447.50;5015163;28;20102;-80
2022/06/02 05:55:32;;;;;;;2.20;1.50;;;;;;;14.77;67.96;96453.97;5034153;28;20135;-78
2022/06/02 05:58:21;;;;;;;3.73;1.70;;;;;;;15.24;64.56;96464.25;5037635;28;20056;-78
2022/06/02 06:01:05;;;;;;;4.70;1.60;;;;;;;15.21;64.36;96464.63;5028747;28;20054;-78
2022/06/02 06:04:00;;;;;;;4.10;2.13;;;;;;;15.44;62.91;96475.13;5031404;28;20042;-78
2022/06/02 06:06:53;;;;;;;4.80;1.60;;;;;;;15.43;60.98;96477.97;5024443;28;20038;-79
2022/06/02 06:09:49;;;;;;;3.70;2.23;;;;;;;16.35;58.38;96470.28;5006160;28;20041;-77
2022/06/02 06:12:51;;;;;;;2.77;1.30;;;;;;;16.20;57.33;96478.31;5018318;28;20042;-78
2022/06/02 06:15:54;;;;;;;3.37;1.77;;;;;;;16.34;55.65;96479.25;4991238;28;20064;-80
2022/06/02 06:18:45;;;;;;;3.93;1.80;;;;;;;15.87;58.52;96477.94;5017210;28;20038;-79
2022/06/02 06:21:48;;;;;;;3.70;1.60;;;;;;;16.13;57.61;96472.13;5024543;28;20042;-79
2022/06/02 06:24:35;;;;;;;3.17;1.70;;;;;;;16.42;56.89;96475.66;5029734;28;20037;-79
2022/06/02 06:27:16;;;;;;;6.53;1.93;;;;;;;16.13;57.44;96477.41;5025403;28;20033;-80
2022/06/02 06:29:53;;;;;;;3.67;1.70;;;;;;;16.24;57.11;96479.56;5012410;28;20029;-78
2022/06/02 06:32:25;;;;;;;4.70;2.10;;;;;;;16.55;55.94;96477.63;5032923;28;21966;-77
2022/06/02 06:35:12;;;;;;;4.30;1.60;;;;;;;16.76;54.23;96468.81;5018064;28;20029;-80
2022/06/02 06:37:59;;;;;;;5.07;1.80;;;;;;;16.92;52.81;96463.25;5031154;28;20038;-79
2022/06/02 06:40:25;;;;;;;3.87;1.60;;;;;;;17.18;51.96;96468.72;5031492;28;20514;-79
2022/06/02 06:43:19;;;;;;;2.67;1.43;;;;;;;17.63;50.55;96471.00;5012917;28;20026;-80
2022/06/02 06:45:51;;;;;;;3.63;2.07;;;;;;;18.06;49.68;96465.47;5043726;28;20101;-80
2022/06/02 06:48:24;;;;;;;3.77;1.90;;;;;;;18.67;48.53;96461.88;5020385;28;20038;-80
2022/06/02 06:51:04;;;;;;;2.83;1.40;;;;;;;18.86;47.48;96470.94;5018014;28;20041;-79
2022/06/02 06:53:50;;;;;;;3.55;2.03;;;;;;;17.92;50.08;96485.09;5024381;28;20036;-80
2022/06/02 06:56:45;;;;;;;6.35;2.10;;;;;;;18.34;48.76;96475.97;5023646;28;20038;-78
2022/06/02 06:59:52;;;;;;;3.70;1.77;;;;;;;18.87;46.93;96481.41;5021414;28;20846;-79
2022/06/02 07:02:34;;;;;;;3.58;1.65;;;;;;;19.66;44.75;96480.47;5013207;28;20115;-80
2022/06/02 07:05:03;;;;;;;3.50;1.83;;;;;;;19.67;44.14;96482.13;5015193;28;20029;-80
2022/06/02 07:07:40;;;;;;;2.92;1.45;;;;;;;20.18;44.25;96470.59;5000013;28;20845;-80
2022/06/02 07:10:20;;;;;;;2.15;1.27;;;;;;;20.32;44.50;96470.53;5016345;28;20038;-80
2022/06/02 07:13:08;;;;;;;4.18;1.50;;;;;;;19.77;44.89;96481.69;5029746;28;20068;-80
2022/06/02 07:15:39;;;;;;;7.07;1.95;;;;;;;19.90;43.40;96486.16;4987564;28;20538;-80
2022/06/02 07:18:21;;;;;;;3.75;1.42;;;;;;;20.17;43.33;96476.97;5013983;28;20061;-79
2022/06/02 07:20:55;;;;;;;3.10;1.30;;;;;;;21.06;41.76;96475.16;5018792;28;20045;-80
2022/06/02 07:23:33;;;;;;;4.55;1.40;;;;;;;20.63;41.81;96477.78;5034757;28;20040;-80
2022/06/02 07:26:24;;;;;;;3.35;1.25;;;;;;;20.64;41.97;96476.72;5021816;28;20037;-80
2022/06/02 07:29:29;;;;;;;2.15;1.40;;;;;;;20.32;41.32;96483.88;5021414;28;20034;-81
2022/06/02 07:32:02;;;;;;;6.47;1.60;;;;;;;20.26;40.94;96480.22;5039478;28;20033;-80
2022/06/02 07:34:45;;;;;;;;;;;;;;;20.63;41.40;96480.44;5030258;28;20064;-78
2022/06/02 07:37:34;;;;;;;5.15;1.60;;;;;;;20.37;41.63;96474.19;5021185;28;19925;-80
2022/06/02 07:40:14;;;;;;;3.63;1.70;;;;;;;21.20;40.81;96473.19;5019014;28;20164;-81
2022/06/02 07:42:58;;;;;;;5.25;2.03;;;;;;;21.76;37.86;96463.34;5020825;28;20064;-82
2022/06/02 07:45:26;;;;;;;4.47;1.38;;;;;;;20.07;42.15;96487.28;5009592;28;20034;-79
2022/06/02 07:48:07;;;;;;;2.00;1.25;;;;;;;19.87;41.57;96484.72;5021867;28;20420;-82
2022/06/02 07:50:35;;;;;;;2.40;1.23;;;;;;;20.63;40.69;96485.78;5024456;28;20402;-81
2022/06/02 07:53:12;;;;;;;2.13;1.10;;;;;;;20.12;41.36;96479.47;5030026;28;20153;-81
2022/06/02 07:56:15;;;;;;;2.15;1.45;;;;;;;20.90;39.82;96471.19;4988141;28;20034;-81
2022/06/02 07:59:06;;;;;;;2.58;1.33;;;;;;;22.31;37.55;96471.34;5009635;28;20438;-81
2022/06/02 08:01:53;;;;;;;3.40;1.20;;;;;;;22.29;38.37;96473.41;5018264;28;20120;-80
2022/06/02 08:04:27;;;;;;;3.08;1.20;;;;;;;22.64;36.37;96470.84;5022331;28;20399;-81
2022/06/02 08:07:04;;;;;;;3.60;1.17;;;;;;;23.53;35.54;96468.13;5018583;28;20601;-81
2022/06/02 08:09:54;;;;;;;2.97;1.45;;;;;;;22.82;37.32;96461.91;5017530;28;20038;-81
2022/06/02 08:12:45;;;;;;;4.50;1.35;;;;;;;23.92;35.32;96476.50;5018386;28;20058;-79
2022/06/02 08:15:35;;;;;;;2.70;1.20;;;;;;;22.36;37.30;96474.94;5037765;28;20037;-82
2022/06/02 08:18:30;;;;;;;5.00;1.27;;;;;;;22.29;35.32;96482.25;5015193;28;20044;-82
2022/06/02 08:21:15;;;;;;;2.20;1.05;;;;;;;22.72;35.57;96478.56;5013863;28;20030;-82
2022/06/02 08:24:13;;;;;;;3.13;1.20;;;;;;;22.78;34.90;96474.94;5011516;28;20487;-82
2022/06/02 08:27:02;;;;;;;4.85;2.03;;;;;;;22.74;33.43;96481.00;5009209;28;20042;-82
2022/06/02 08:30:13;;;;;;;4.80;1.45;;;;;;;23.46;33.72;96484.34;4989893;28;20052;-81
2022/06/02 08:32:49;;;;;;;2.78;1.20;;;;;;;23.64;32.41;96477.19;4946122;29;20193;-82
2022/06/02 08:35:26;;;;;;;6.53;1.20;;;;;;;24.23;32.27;96484.09;4943560;29;20047;-80
2022/06/02 08:37:58;;;;;;;4.22;1.00;;;;;;;24.55;30.68;96483.66;4988288;28;20077;-82
2022/06/02 08:40:54;;;;;;;1.70;0.80;;;;;;;23.83;32.90;96485.97;5010372;28;20048;-83
2022/06/02 08:43:46;;;;;;;2.83;1.00;;;;;;;24.89;32.45;96486.38;5014762;28;20045;-81
2022/06/02 08:46:27;;;;;;;4.03;1.10;;;;;;;25.64;30.66;96477.84;5025493;28;20037;-82
2022/06/02 08:49:34;;;;;;;3.72;1.17;;;;;;;24.75;32.57;96485.03;5029151;28;20042;-81
2022/06/02 08:52:21;;;;;;;4.70;1.33;;;;;;;23.38;33.81;96487.41;5007564;28;20053;-79
2022/06/02 08:55:29;;;;;;;2.72;1.10;;;;;;;22.16;35.58;96498.50;5041112;28;20049;-79
2022/06/02 08:58:26;;;;;;;2.08;1.00;;;;;;;22.51;35.01;96484.44;5050183;28;20057;-81
2022/06/02 09:01:29;;;;;;;6.43;1.48;;;;;;;23.63;34.57;96479.06;5035920;28;20102;-79
2022/06/02 09:04:30;;;;;;;3.27;1.20;;;;;;;25.19;32.20;96474.50;5013389;28;20026;-83
2022/06/02 09:07:05;;;;;;;3.50;1.30;;;;;;;25.51;32.57;96478.19;5012778;28;20506;-80
2022/06/02 09:09:49;;;;;;;4.78;1.30;;;;;;;24.68;32.53;96485.19;5000524;28;20044;-81
2022/06/02 09:12:36;;;;;;;4.43;1.30;;;;;;;25.62;30.94;96482.66;5013854;28;20038;-81
2022/06/02 09:15:32;;;;;;;3.42;1.40;;;;;;;24.77;32.28;96488.31;5007733;28;20446;-79
2022/06/02 09:18:10;;;;;;;2.65;1.02;;;;;;;26.04;30.87;96479.44;5011454;28;20046;-81
2022/06/02 09:21:08;;;;;;;2.40;1.08;;;;;;;25.77;30.97;96483.94;5021661;28;20048;-81
2022/06/02 09:23:58;;;;;;;5.07;1.70;;;;;;;26.24;30.81;96491.53;4996002;28;20049;-80
2022/06/02 09:27:17;;;;;;;3.50;1.67;;;;;;;26.48;30.78;96489.41;5027213;28;20041;-81
2022/06/02 09:29:57;;;;;;;2.25;1.08;;;;;;;26.01;31.30;96488.03;5012350;28;20041;-81
2022/06/02 09:32:30;;;;;;;2.85;1.20;;;;;;;26.91;30.67;96484.94;5026622;28;20046;-81
2022/06/02 09:35:13;;;;;;;3.35;1.20;;;;;;;25.97;30.55;96492.31;5016971;28;20040;-80
2022/06/02 09:37:54;;;;;;;4.20;2.60;;;;;;;26.91;29.36;96484.94;5027338;28;20121;-80
2022/06/02 09:40:42;;;;;;;2.42;1.17;;;;;;;26.21;30.35;96487.47;5008853;28;20056;-81
2022/06/02 09:43:53;;;;;;;1.58;0.90;;;;;;;26.08;30.77;96488.66;5028920;28;20901;-80
2022/06/02 09:46:40;;;;;;;2.60;1.27;;;;;;;26.06;30.76;96488.09;5029737;28;20038;-80
2022/06/02 09:49:43;;;;;;;3.28;1.20;;;;;;;26.89;29.07;96487.88;5027268;28;20125;-82
2022/06/02 09:52:31;;;;;;;8.20;1.40;;;;;;;26.89;29.31;96481.69;5034390;28;20042;-80
2022/06/02 09:55:19;;;;;;;4.70;1.60;;;;;;;26.29;29.46;96484.34;5017341;28;20105;-81
2022/06/02 09:57:57;;;;;;;4.45;1.27;;;;;;;25.73;31.21;96485.50;5026376;28;20038;-80
2022/06/02 10:00:48;;;;;;;3.53;1.55;;;;;;;25.17;32.52;96498.94;5012001;28;20038;-81
2022/06/02 10:03:34;;;;;;;7.00;4.53;;;;;;;25.97;31.04;96486.91;4995092;28;20096;-82
2022/06/02 10:06:12;;;;;;;4.63;1.80;;;;;;;27.31;29.64;96487.19;5012375;28;20057;-81
2022/06/02 10:09:04;;;;;;;3.03;1.30;;;;;;;26.32;31.16;96488.38;5012135;28;20026;-81
2022/06/02 10:11:41;;;;;;;2.95;1.10;;;;;;;26.31;29.99;96486.75;5016178;28;20650;-80
2022/06/02 10:14:42;;;;;;;1.35;0.90;;;;;;;24.94;31.80;96499.91;5012364;28;20041;-82
2022/06/02 10:17:13;;;;;;;4.28;1.33;;;;;;;26.82;29.21;96497.28;5027444;28;20523;-78
2022/06/02 10:20:06;;;;;;;2.88;1.20;;;;;;;26.70;29.20;96483.97;5029760;28;20083;-79
2022/06/02 10:22:59;;;;;;;2.83;1.23;;;;;;;25.72;31.06;96490.06;5013701;28;20038;-79
2022/06/02 10:25:34;;;;;;;2.85;1.35;;;;;;;26.18;30.88;96487.16;4992163;28;20053;-79
2022/06/02 10:28:39;;;;;;;1.83;0.90;;;;;;;27.10;29.87;96477.28;5015691;28;20034;-77
2022/06/02 10:31:32;;;;;;;5.00;1.10;;;;;;;26.27;31.22;96485.66;4938406;28;20045;-78
2022/06/02 10:34:04;;;;;;;2.10;1.00;;;;;;;27.20;30.25;96472.00;4950918;28;20196;-79
2022/06/02 10:36:41;;;;;;;2.17;1.05;;;;;;;27.72;30.25;96474.72;4979290;28;20133;-78
2022/06/02 10:39:29;;;;;;;4.35;1.00;;;;;;;26.44;30.85;96470.19;5012222;28;20053;-80
2022/06/02 10:42:15;;;;;;;2.60;1.13;;;;;;;26.30;30.67;96477.06;5016063;28;20407;-79
2022/06/02 10:44:56;;;;;;;3.83;1.30;;;;;;;24.96;32.57;96481.66;5029523;28;20041;-80
2022/06/02 10:47:48;;;;;;;3.78;1.05;;;;;;;26.53;31.36;96463.31;5021285;28;20033;-80
2022/06/02 10:50:40;;;;;;;1.77;1.00;;;;;;;27.64;28.97;96453.63;5018446;28;20065;-80
2022/06/02 10:53:24;;;;;;;3.13;1.02;;;;;;;27.52;29.19;96461.09;4987658;28;20508;-80
2022/06/02 10:55:53;;;;;;;4.10;1.20;;;;;;;28.02;29.18;96465.16;5023268;28;20034;-77
2022/06/02 10:58:56;;;;;;;3.55;1.10;;;;;;;27.42;29.23;96461.84;5014200;28;20042;-79
2022/06/02 11:01:24;;;;;;;;;;;;;;;26.87;29.31;96463.06;5020669;28;20102;-80
2022/06/02 11:04:34;;;;;;;3.35;1.30;;;;;;;26.70;30.28;96454.28;5028233;28;19913;-80
2022/06/02 11:07:25;;;;;;;2.63;1.02;;;;;;;28.78;29.16;96447.50;5010753;28;20510;-80
2022/06/02 11:10:19;;;;;;;1.67;0.90;;;;;;;29.39;27.29;96442.06;5010866;28;20087;-80
2022/06/02 11:13:22;;;;;;;2.90;1.13;;;;;;;27.85;28.14;96449.16;5024201;28;20483;-80
2022/06/02 11:16:06;;;;;;;3.50;1.40;;;;;;;29.15;27.62;96447.25;5024963;28;20034;-79
2022/06/02 11:18:38;;;;;;;2.15;1.27;;;;;;;27.64;28.63;96444.72;5024014;28;20092;-80
2022/06/02 11:21:14;;;;;;;3.10;1.25;;;;;;;27.09;29.98;96445.94;5029595;28;20494;-79
2022/06/02 11:23:57;;;;;;;3.80;1.30;;;;;;;25.13;32.99;96450.19;5021730;28;20030;-77
2022/06/02 11:26:54;;;;;;;2.78;1.30;;;;;;;27.29;29.57;96446.09;4999464;28;20053;-78
2022/06/02 11:29:32;;;;;;;4.05;1.60;;;;;;;26.42;30.80;96444.53;5011131;28;20037;-79
2022/06/02 11:32:16;;;;;;;4.07;1.73;;;;;;;27.56;29.17;96443.28;5028860;28;20056;-81
2022/06/02 11:35:08;;;;;;;3.20;1.10;;;;;;;28.26;28.27;96441.16;5010733;28;20029;-81
2022/06/02 11:37:57;;;;;;;5.25;1.20;;;;;;;28.88;27.93;96436.69;5010605;28;20045;-81
2022/06/02 11:41:00;;;;;;;3.20;1.08;;;;;;;28.09;29.15;96435.19;5018765;28;20038;-80
2022/06/02 11:43:52;;;;;;;1.75;0.98;;;;;;;27.41;29.73;96429.72;4984206;28;20457;-80
2022/06/02 11:46:38;;;;;;;2.95;1.10;;;;;;;26.65;30.83;96428.06;4978988;28;20127;-81
2022/06/02 11:49:10;;;;;;;2.25;1.20;;;;;;;27.76;28.88;96431.81;5025648;28;20041;-80
2022/06/02 11:52:00;;;;;;;4.07;1.35;;;;;;;29.06;28.27;96425.31;5009759;28;20033;-80
2022/06/02 11:54:53;;;;;;;2.50;1.30;;;;;;;27.11;30.27;96435.72;5012676;28;20034;-77
2022/06/02 11:57:34;;;;;;;2.63;1.10;;;;;;;28.45;28.17;96424.47;5013862;28;20538;-80
2022/06/02 12:00:22;;;;;;;3.13;1.40;;;;;;;29.22;26.78;96404.44;5033135;28;20061;-81
2022/06/02 12:03:26;;;;;;;1.33;1.00;;;;;;;28.29;29.44;96421.69;5013915;28;20044;-78
2022/06/02 12:06:22;;;;;;;6.15;1.48;;;;;;;29.24;28.01;96417.72;4976858;28;20101;-80
2022/06/02 12:09:00;;;;;;;2.85;1.10;;;;;;;28.81;28.39;96418.00;5015993;28;20030;-80
2022/06/02 12:11:50;;;;;;;5.10;1.88;;;;;;;28.49;29.37;96417.44;5014408;28;20038;-80
2022/06/02 12:14:32;;;;;;;5.65;1.88;;;;;;;28.25;28.09;96404.41;5030610;28;20057;-81
2022/06/02 12:17:07;;;;;;;5.18;2.58;;;;;;;29.44;27.82;96401.41;5023871;28;20089;-80
2022/06/02 12:19:44;;;;;;;9.05;6.22;;;;;;;28.51;29.25;96409.88;5034014;28;20046;-79
2022/06/02 12:22:40;;;;;;;1.83;1.10;;;;;;;27.66;30.39;96402.00;5028387;28;20048;-80
2022/06/02 12:25:44;;;;;;;3.53;1.40;;;;;;;26.90;31.72;96395.09;5027124;28;20061;-81
2022/06/02 12:28:36;;;;;;;2.88;1.08;;;;;;;27.60;30.77;96389.56;4941169;28;20043;-81
2022/06/02 12:31:30;;;;;;;2.22;1.02;;;;;;;27.52;30.83;96398.16;5015581;28;20725;-81
2022/06/02 12:34:11;;;;;;;4.20;1.45;;;;;;;28.74;28.96;96397.69;5031404;28;20033;-81
2022/06/02 12:37:02;;;;;;;4.18;1.08;;;;;;;28.75;28.37;96404.75;5019380;28;20499;-80
2022/06/02 12:39:40;;;;;;;3.00;1.10;;;;;;;28.15;28.67;96409.78;5013506;28;20471;-81
2022/06/02 12:42:30;;;;;;;2.78;1.20;;;;;;;28.07;30.31;96402.19;5025965;28;20068;-81
2022/06/02 12:45:18;;;;;;;1.70;1.15;;;;;;;27.89;30.04;96398.88;5029273;28;20431;-80
2022/06/02 12:48:05;;;;;;;2.83;1.30;;;;;;;28.30;28.81;96404.38;4999950;28;20391;-81
2022/06/02 12:50:33;;;;;;;3.33;1.13;;;;;;;28.46;29.78;96402.56;5011689;28;20108;-80
2022/06/02 12:53:36;;;;;;;5.47;1.70;;;;;;;25.61;32.62;96423.66;5023120;28;20391;-78
2022/06/02 12:56:34;;;;;;;;;;;;;;;26.06;32.31;96423.44;5012445;28;20092;-81
2022/06/02 12:59:12;;;;;;;1.67;0.80;;;;;;;27.77;30.72;96417.25;5016400;28;20603;-81
2022/06/02 13:01:44;;;;;;;2.35;1.30;;;;;;;26.84;31.58;96417.69;5021746;28;20013;-79
2022/06/02 13:04:31;;;;;;;3.55;1.08;;;;;;;25.98;31.91;96428.44;5039819;28;20037;-78
2022/06/02 13:07:19;;;;;;;5.85;1.17;;;;;;;24.13;35.72;96422.09;5021176;28;20068;-81
2022/06/02 13:10:09;;;;;;;2.75;1.08;;;;;;;25.96;33.87;96417.94;5020080;28;20091;-81